Time;durP1;ratioP1;P1;durP2;ratioP2;P2;SDS_P1;SDS_P2;PMS_P1;PMS_P2;Temp;Humidity;BMP_temperature;BMP_pressure;BME280_temperature;BME280_humidity;BME280_pressure;Samples;Min_cycle;Max_cycle;Signal;HPM_P1;HPM_P2
2022/06/21 00:00:05;;;;;;;2.88;2.00;;;15.00;94.70;;;;;;2076853;28;20167;-69
2022/06/21 00:01:08;;;;;;;2.08;1.88;;;15.00;94.20;;;;;;2078699;28;20026;-69
2022/06/21 00:02:11;;;;;;;3.22;2.17;;;14.90;95.00;;;;;;2079576;28;20037;-69
2022/06/21 00:03:17;;;;;;;3.53;2.17;;;15.00;95.50;;;;;;2075262;28;20018;-69
2022/06/21 00:04:18;;;;;;;2.60;2.40;;;14.90;96.10;;;;;;2076780;28;20369;-69
2022/06/21 00:05:30;;;;;;;2.17;1.80;;;14.90;96.30;;;;;;2076663;28;20033;-69
2022/06/21 00:06:30;;;;;;;3.15;1.98;;;14.90;96.90;;;;;;2076972;28;20022;-69
2022/06/21 00:07:31;;;;;;;5.50;2.20;;;14.80;96.60;;;;;;2078251;28;20030;-69
2022/06/21 00:08:35;;;;;;;3.00;2.42;;;14.90;96.70;;;;;;2076934;28;20022;-69
2022/06/21 00:09:35;;;;;;;3.65;2.38;;;14.80;96.80;;;;;;2078448;28;20519;-69
2022/06/21 00:10:36;;;;;;;4.03;2.35;;;14.80;96.20;;;;;;2079246;28;20426;-69
2022/06/21 00:11:36;;;;;;;5.70;2.55;;;14.80;96.50;;;;;;2076355;28;20110;-69
2022/06/21 00:12:37;;;;;;;2.78;2.20;;;14.70;97.50;;;;;;2079850;28;20021;-69
2022/06/21 00:13:37;;;;;;;3.17;2.00;;;14.80;97.20;;;;;;2078990;28;20060;-69
2022/06/21 00:14:40;;;;;;;4.55;2.50;;;14.70;96.20;;;;;;2076035;28;20052;-69
2022/06/21 00:15:42;;;;;;;4.15;2.47;;;14.70;97.40;;;;;;2076290;28;20678;-69
2022/06/21 00:16:43;;;;;;;3.10;2.13;;;14.70;97.90;;;;;;2076989;28;20054;-69
2022/06/21 00:17:48;;;;;;;5.22;2.55;;;14.70;98.30;;;;;;2074964;28;20549;-69
2022/06/21 00:18:49;;;;;;;2.25;2.05;;;14.60;98.80;;;;;;2079747;28;20481;-69
2022/06/21 00:19:50;;;;;;;3.42;2.35;;;14.60;98.80;;;;;;2079449;28;20815;-69
2022/06/21 00:20:51;;;;;;;2.53;1.95;;;14.60;99.40;;;;;;2077716;28;20160;-69
2022/06/21 00:21:52;;;;;;;2.83;2.20;;;14.60;99.90;;;;;;2079453;28;20884;-69
2022/06/21 00:22:53;;;;;;;2.72;2.30;;;14.60;99.90;;;;;;2077048;28;20024;-69
2022/06/21 00:23:55;;;;;;;4.00;2.50;;;14.60;99.90;;;;;;2071599;28;20026;-69
2022/06/21 00:24:55;;;;;;;2.35;2.10;;;14.50;99.90;;;;;;2071775;28;20018;-69
2022/06/21 00:25:56;;;;;;;3.92;2.20;;;14.50;99.90;;;;;;2075755;28;20022;-69
2022/06/21 00:26:57;;;;;;;4.38;2.65;;;14.50;99.90;;;;;;2079372;28;20018;-69
2022/06/21 00:27:57;;;;;;;3.85;2.42;;;14.50;99.90;;;;;;2076923;28;20084;-69
2022/06/21 00:28:59;;;;;;;3.97;2.17;;;14.50;99.90;;;;;;2079007;28;20021;-69
2022/06/21 00:29:59;;;;;;;5.28;2.45;;;14.50;99.90;;;;;;2079498;28;20028;-69
2022/06/21 00:31:00;;;;;;;3.35;2.45;;;14.40;99.90;;;;;;2079507;28;20022;-69
2022/06/21 00:32:00;;;;;;;4.28;2.63;;;14.40;99.90;;;;;;2079084;28;20025;-69
2022/06/21 00:33:01;;;;;;;4.25;2.15;;;14.40;99.90;;;;;;2078529;28;20120;-70
2022/06/21 00:34:10;;;;;;;3.22;2.15;;;14.40;99.90;;;;;;2077736;28;20021;-69
2022/06/21 00:35:16;;;;;;;3.13;2.00;;;14.40;99.90;;;;;;2077454;28;20021;-69
2022/06/21 00:36:30;;;;;;;2.33;1.98;;;14.30;99.90;;;;;;2077609;28;20425;-69
2022/06/21 00:37:31;;;;;;;4.60;2.40;;;14.40;99.90;;;;;;2077285;28;20052;-69
2022/06/21 00:38:34;;;;;;;4.25;2.55;;;14.30;99.90;;;;;;2079035;28;20914;-69
2022/06/21 00:39:34;;;;;;;3.67;2.10;;;14.30;99.90;;;;;;2078990;28;20716;-69
2022/06/21 00:40:35;;;;;;;3.53;2.10;;;14.30;99.90;;;;;;2075749;28;20429;-69
2022/06/21 00:41:55;;;;;;;3.45;2.38;;;14.30;99.90;;;;;;2077567;28;20030;-69
2022/06/21 00:43:22;;;;;;;4.45;2.30;;;14.20;99.90;;;;;;2078290;28;20021;-69
2022/06/21 00:44:38;;;;;;;4.45;2.45;;;14.20;99.90;;;;;;2075995;28;20429;-69
2022/06/21 00:45:41;;;;;;;2.92;2.60;;;14.10;99.90;;;;;;2078227;28;20017;-69
2022/06/21 00:46:49;;;;;;;5.57;2.70;;;14.10;99.90;;;;;;2077898;28;20017;-69
2022/06/21 00:47:56;;;;;;;2.42;2.25;;;14.10;99.90;;;;;;2078149;28;20041;-69
2022/06/21 00:48:58;;;;;;;2.50;2.30;;;14.10;99.90;;;;;;2077564;28;20026;-69
2022/06/21 00:50:09;;;;;;;4.03;2.50;;;14.10;99.90;;;;;;2078193;28;20028;-69
2022/06/21 00:51:18;;;;;;;2.75;2.22;;;14.10;99.90;;;;;;2079322;28;20550;-69
2022/06/21 00:52:25;;;;;;;2.88;1.88;;;14.10;99.90;;;;;;2076965;28;20065;-69
2022/06/21 00:53:37;;;;;;;2.97;2.55;;;14.10;99.90;;;;;;2079055;28;21375;-69
2022/06/21 00:54:54;;;;;;;3.85;2.53;;;14.00;99.90;;;;;;2079105;28;20120;-69
2022/06/21 00:55:57;;;;;;;3.17;2.33;;;14.00;99.90;;;;;;2077323;28;20036;-69
2022/06/21 00:57:04;;;;;;;3.42;2.38;;;14.00;99.90;;;;;;2077908;28;20022;-69
2022/06/21 00:58:06;;;;;;;4.15;2.50;;;14.00;99.90;;;;;;2077813;28;20045;-69
2022/06/21 00:59:25;;;;;;;2.38;2.17;;;14.00;99.90;;;;;;2078764;28;20029;-69
2022/06/21 01:00:39;;;;;;;3.38;2.22;;;13.90;99.90;;;;;;2078399;28;20037;-69
2022/06/21 01:01:40;;;;;;;2.95;2.00;;;13.90;99.90;;;;;;2077262;28;20028;-69
2022/06/21 01:02:40;;;;;;;3.00;2.15;;;13.90;99.90;;;;;;2079325;28;20029;-69
2022/06/21 01:03:46;;;;;;;4.40;2.40;;;13.90;99.90;;;;;;2077286;28;20026;-69
2022/06/21 01:04:50;;;;;;;3.58;2.40;;;13.90;99.90;;;;;;2077724;28;20607;-69
2022/06/21 01:05:55;;;;;;;4.43;2.90;;;13.90;99.90;;;;;;2078110;28;20037;-69
2022/06/21 01:06:59;;;;;;;7.72;2.63;;;13.90;99.90;;;;;;2078717;28;20010;-69
2022/06/21 01:08:00;;;;;;;4.97;2.42;;;13.90;99.90;;;;;;2077049;28;20430;-69
2022/06/21 01:09:08;;;;;;;6.25;2.63;;;13.80;99.90;;;;;;2077022;28;20151;-69
2022/06/21 01:10:14;;;;;;;2.55;2.30;;;13.80;99.90;;;;;;2069284;28;20072;-69
2022/06/21 01:11:19;;;;;;;3.22;2.42;;;13.80;99.90;;;;;;2072491;28;20029;-69
2022/06/21 01:12:47;;;;;;;3.47;2.30;;;13.80;99.90;;;;;;2078604;28;20032;-69
2022/06/21 01:13:51;;;;;;;4.15;2.50;;;13.80;99.90;;;;;;2076099;28;20037;-69
2022/06/21 01:15:06;;;;;;;6.25;2.90;;;13.70;99.90;;;;;;2079635;28;20029;-69
2022/06/21 01:16:07;;;;;;;2.90;2.30;;;13.70;99.90;;;;;;2078413;28;20018;-69
2022/06/21 01:17:11;;;;;;;4.10;2.60;;;13.70;99.90;;;;;;2079206;28;20538;-69
2022/06/21 01:18:15;;;;;;;3.67;2.72;;;13.70;99.90;;;;;;2076440;28;20088;-69
2022/06/21 01:19:37;;;;;;;3.75;2.40;;;13.70;99.90;;;;;;2074653;28;20032;-69
2022/06/21 01:20:43;;;;;;;2.53;2.05;;;13.70;99.90;;;;;;2077494;28;20022;-69
2022/06/21 01:21:50;;;;;;;3.38;2.67;;;13.60;99.90;;;;;;2075991;28;20112;-69
2022/06/21 01:22:56;;;;;;;5.35;2.80;;;13.60;99.90;;;;;;2077182;28;20520;-69
2022/06/21 01:24:05;;;;;;;6.20;2.85;;;13.60;99.90;;;;;;2078398;28;20042;-69
2022/06/21 01:25:25;;;;;;;3.33;2.55;;;13.60;99.90;;;;;;2076032;28;20362;-69
2022/06/21 01:26:41;;;;;;;3.67;2.60;;;13.60;99.90;;;;;;2078073;28;20060;-69
2022/06/21 01:27:42;;;;;;;4.75;3.10;;;13.60;99.90;;;;;;2076751;28;20024;-69
2022/06/21 01:28:44;;;;;;;6.50;3.17;;;13.50;99.90;;;;;;2079853;28;20053;-69
2022/06/21 01:29:45;;;;;;;3.75;2.80;;;13.50;99.90;;;;;;2075948;28;20025;-69
2022/06/21 01:30:49;;;;;;;3.85;2.90;;;13.50;99.90;;;;;;2075960;28;20085;-69
2022/06/21 01:31:51;;;;;;;4.50;2.83;;;13.50;99.90;;;;;;2076854;28;20014;-69
2022/06/21 01:32:53;;;;;;;5.18;2.80;;;13.50;99.90;;;;;;2076653;28;20060;-69
2022/06/21 01:33:53;;;;;;;4.93;3.15;;;13.50;99.90;;;;;;2076671;28;20021;-69
2022/06/21 01:34:54;;;;;;;3.72;2.90;;;13.50;99.90;;;;;;2079230;28;20032;-69
2022/06/21 01:35:57;;;;;;;4.70;2.72;;;13.50;99.90;;;;;;2075126;28;20028;-69
2022/06/21 01:37:09;;;;;;;4.75;3.00;;;13.50;99.90;;;;;;2077713;28;20453;-69
2022/06/21 01:38:17;;;;;;;3.28;2.65;;;13.50;99.90;;;;;;2079032;28;20468;-69
2022/06/21 01:39:28;;;;;;;4.13;2.80;;;13.50;99.90;;;;;;2074544;28;20060;-69
2022/06/21 01:40:33;;;;;;;5.63;2.95;;;13.40;99.90;;;;;;2076304;28;20033;-69
2022/06/21 01:41:50;;;;;;;3.17;2.80;;;13.40;99.90;;;;;;2077147;28;20033;-69
2022/06/21 01:42:56;;;;;;;3.28;2.92;;;13.40;99.90;;;;;;2073768;28;20588;-69
2022/06/21 01:44:03;;;;;;;3.63;2.85;;;13.40;99.90;;;;;;2076928;28;20025;-69
2022/06/21 01:45:09;;;;;;;2.90;2.60;;;13.40;99.90;;;;;;2079227;28;20048;-69
2022/06/21 01:46:14;;;;;;;4.43;2.95;;;13.40;99.90;;;;;;2075941;28;20032;-69
2022/06/21 01:47:21;;;;;;;3.67;2.88;;;13.40;99.90;;;;;;2075417;28;20053;-69
2022/06/21 01:48:34;;;;;;;4.40;2.85;;;13.40;99.90;;;;;;2077811;28;20160;-69
2022/06/21 01:49:37;;;;;;;4.65;3.05;;;13.40;99.90;;;;;;2075815;28;20032;-69
2022/06/21 01:50:41;;;;;;;4.60;2.63;;;13.30;99.90;;;;;;2076292;28;20147;-69
2022/06/21 01:51:51;;;;;;;4.30;2.78;;;13.30;99.90;;;;;;2074423;28;20029;-69
2022/06/21 01:52:54;;;;;;;;;;;13.30;99.90;;;;;;2071922;28;20029;-69
2022/06/21 01:53:56;;;;;;;5.20;2.92;;;13.20;99.90;;;;;;2075492;28;19910;-69
2022/06/21 01:55:02;;;;;;;7.50;3.05;;;13.20;99.90;;;;;;2077425;28;20057;-69
2022/06/21 01:56:21;;;;;;;5.70;2.58;;;13.20;99.90;;;;;;2078345;28;20029;-69
2022/06/21 01:57:23;;;;;;;4.82;2.58;;;13.20;99.90;;;;;;2074597;28;20092;-69
2022/06/21 01:58:28;;;;;;;2.70;2.50;;;13.20;99.90;;;;;;2076887;28;20032;-69
2022/06/21 01:59:37;;;;;;;3.40;2.60;;;13.20;99.90;;;;;;2077005;28;20487;-69
2022/06/21 02:00:42;;;;;;;4.25;2.72;;;13.20;99.90;;;;;;2076519;28;20500;-69
2022/06/21 02:01:52;;;;;;;4.07;2.50;;;13.20;99.90;;;;;;2078094;28;20025;-69
2022/06/21 02:03:02;;;;;;;4.00;2.65;;;13.20;99.90;;;;;;2077551;28;20070;-69
2022/06/21 02:04:04;;;;;;;3.35;2.45;;;13.20;99.90;;;;;;2074879;28;20032;-69
2022/06/21 02:05:13;;;;;;;5.13;3.00;;;13.10;99.90;;;;;;2073067;28;20046;-69
2022/06/21 02:06:16;;;;;;;2.72;2.47;;;13.10;99.90;;;;;;2078894;28;20029;-69
2022/06/21 02:07:22;;;;;;;5.68;2.40;;;13.10;99.90;;;;;;2076033;28;20025;-69
2022/06/21 02:08:29;;;;;;;4.90;2.88;;;13.10;99.90;;;;;;2076353;28;20017;-69
2022/06/21 02:09:36;;;;;;;3.25;2.00;;;13.10;99.90;;;;;;2078413;28;20113;-69
2022/06/21 02:10:50;;;;;;;4.07;2.30;;;13.10;99.90;;;;;;2078478;28;20029;-69
2022/06/21 02:12:06;;;;;;;3.60;2.50;;;13.10;99.90;;;;;;2075462;28;20063;-69
2022/06/21 02:13:21;;;;;;;6.93;2.63;;;13.10;99.90;;;;;;2076639;28;20093;-69
2022/06/21 02:14:30;;;;;;;4.57;2.42;;;13.10;99.90;;;;;;2077777;28;20022;-69
2022/06/21 02:15:40;;;;;;;3.35;2.40;;;13.10;99.90;;;;;;2075732;28;20101;-69
2022/06/21 02:16:45;;;;;;;4.80;2.40;;;13.00;99.90;;;;;;2077564;28;20017;-69
2022/06/21 02:17:48;;;;;;;3.47;2.10;;;13.00;99.90;;;;;;2074171;28;20029;-69
2022/06/21 02:18:53;;;;;;;4.53;2.10;;;13.00;99.90;;;;;;2076964;28;20057;-69
2022/06/21 02:20:25;;;;;;;2.95;2.40;;;13.00;99.90;;;;;;2076164;28;20022;-69
2022/06/21 02:21:36;;;;;;;3.85;2.20;;;13.00;99.90;;;;;;2076592;28;20439;-69
2022/06/21 02:22:37;;;;;;;3.70;2.53;;;13.00;99.90;;;;;;2078139;28;20037;-69
2022/06/21 02:23:40;;;;;;;2.85;2.38;;;13.00;99.90;;;;;;2078300;28;20029;-69
2022/06/21 02:24:41;;;;;;;3.63;2.75;;;13.00;99.90;;;;;;2076792;28;20022;-69
2022/06/21 02:25:42;;;;;;;3.28;2.60;;;13.00;99.90;;;;;;2076498;28;20517;-69
2022/06/21 02:26:44;;;;;;;4.15;2.38;;;13.00;99.90;;;;;;2077572;28;20017;-69
2022/06/21 02:27:45;;;;;;;4.97;2.40;;;13.00;99.90;;;;;;2077404;28;20577;-69
2022/06/21 02:28:46;;;;;;;2.58;2.25;;;13.00;99.90;;;;;;2083322;28;20088;-69
2022/06/21 02:29:51;;;;;;;3.80;3.00;;;13.00;99.90;;;;;;2083170;28;20029;-69
2022/06/21 02:30:53;;;;;;;2.60;2.40;;;12.90;99.90;;;;;;2069196;28;20104;-69
2022/06/21 02:31:53;;;;;;;4.68;2.30;;;12.90;99.90;;;;;;2069787;28;20028;-69
2022/06/21 02:32:58;;;;;;;3.33;2.38;;;12.90;99.90;;;;;;2076806;28;20501;-69
2022/06/21 02:34:05;;;;;;;3.33;2.80;;;12.90;99.90;;;;;;2077371;28;20014;-69
2022/06/21 02:35:08;;;;;;;2.47;2.15;;;12.90;99.90;;;;;;2078378;28;20025;-69
2022/06/21 02:36:15;;;;;;;2.75;2.40;;;12.90;99.90;;;;;;2078705;28;20112;-69
2022/06/21 02:37:15;;;;;;;3.95;2.88;;;12.90;99.90;;;;;;2077909;28;20053;-69
2022/06/21 02:38:22;;;;;;;4.97;2.67;;;12.90;99.90;;;;;;2077524;28;20555;-69
2022/06/21 02:39:26;;;;;;;4.00;2.42;;;12.90;99.90;;;;;;2076915;28;20018;-69
2022/06/21 02:40:41;;;;;;;4.85;2.95;;;12.90;99.90;;;;;;2078860;28;20389;-69
2022/06/21 02:41:46;;;;;;;5.57;2.50;;;12.90;99.90;;;;;;2078092;28;20017;-69
2022/06/21 02:42:48;;;;;;;4.90;2.78;;;12.80;99.90;;;;;;2077623;28;20515;-69
2022/06/21 02:44:06;;;;;;;4.63;3.00;;;12.80;99.90;;;;;;2076870;28;20116;-69
2022/06/21 02:45:22;;;;;;;3.65;2.72;;;12.80;99.90;;;;;;2078195;28;20032;-69
2022/06/21 02:46:26;;;;;;;5.25;3.22;;;12.80;99.90;;;;;;2078172;28;20041;-69
2022/06/21 02:47:35;;;;;;;2.83;2.33;;;12.80;99.90;;;;;;2078538;28;20519;-69
2022/06/21 02:48:48;;;;;;;4.85;2.50;;;12.80;99.90;;;;;;2076535;28;20138;-69
2022/06/21 02:49:55;;;;;;;2.80;2.45;;;12.80;99.90;;;;;;2077616;28;20022;-69
2022/06/21 02:51:02;;;;;;;2.63;2.40;;;12.70;99.90;;;;;;2077505;28;20033;-69
2022/06/21 02:52:18;;;;;;;4.97;2.88;;;12.80;99.90;;;;;;2077960;28;20647;-69
2022/06/21 02:53:27;;;;;;;7.20;2.90;;;12.70;99.90;;;;;;2075850;28;20095;-69
2022/06/21 02:54:40;;;;;;;4.03;3.10;;;12.70;99.90;;;;;;2077882;28;20034;-69
2022/06/21 02:55:50;;;;;;;3.20;2.90;;;12.70;99.90;;;;;;2074839;28;20037;-69
2022/06/21 02:57:01;;;;;;;3.20;2.60;;;12.70;99.90;;;;;;2075204;28;20444;-69
2022/06/21 02:58:13;;;;;;;4.53;2.95;;;12.70;99.90;;;;;;2077819;28;20021;-69
2022/06/21 02:59:14;;;;;;;6.38;3.28;;;12.60;99.90;;;;;;2076430;28;20068;-69
2022/06/21 03:00:18;;;;;;;4.60;3.25;;;12.60;99.90;;;;;;2073992;28;20060;-69
2022/06/21 03:01:30;;;;;;;3.97;2.90;;;12.60;99.90;;;;;;2077768;28;20037;-69
2022/06/21 03:02:32;;;;;;;3.60;2.58;;;12.60;99.90;;;;;;2076905;28;20034;-69
2022/06/21 03:03:34;;;;;;;3.40;3.10;;;12.60;99.90;;;;;;2077219;28;20064;-69
2022/06/21 03:04:43;;;;;;;4.43;2.90;;;12.60;99.90;;;;;;2076295;28;20021;-69
2022/06/21 03:05:47;;;;;;;4.50;2.90;;;12.60;99.90;;;;;;2077987;28;20086;-69
2022/06/21 03:06:49;;;;;;;2.75;2.50;;;12.60;99.90;;;;;;2078569;28;20030;-69
2022/06/21 03:07:53;;;;;;;3.72;2.92;;;12.60;99.90;;;;;;2077483;28;20017;-69
2022/06/21 03:09:12;;;;;;;7.15;2.90;;;12.60;99.90;;;;;;2077908;28;20057;-69
2022/06/21 03:10:30;;;;;;;4.28;3.00;;;12.60;99.90;;;;;;2074698;28;20057;-69
2022/06/21 03:11:35;;;;;;;4.38;2.88;;;12.60;99.90;;;;;;2076375;28;20033;-69
2022/06/21 03:12:36;;;;;;;5.40;3.50;;;12.60;99.90;;;;;;2074629;28;20045;-69
2022/06/21 03:13:38;;;;;;;5.22;3.15;;;12.60;99.90;;;;;;2077312;28;20496;-69
2022/06/21 03:14:38;;;;;;;4.07;3.05;;;12.60;99.90;;;;;;2077737;28;20068;-69
2022/06/21 03:15:39;;;;;;;4.50;2.83;;;12.60;99.90;;;;;;2079292;28;20021;-69
2022/06/21 03:16:42;;;;;;;4.13;3.10;;;12.60;99.90;;;;;;2077757;28;20741;-69
2022/06/21 03:17:51;;;;;;;4.93;3.30;;;12.60;99.90;;;;;;2078965;28;20025;-69
2022/06/21 03:18:56;;;;;;;3.95;2.90;;;12.60;99.90;;;;;;2077213;28;20057;-69
2022/06/21 03:19:57;;;;;;;5.47;2.90;;;12.60;99.90;;;;;;2078221;28;20025;-69
2022/06/21 03:20:59;;;;;;;6.70;3.45;;;12.60;99.90;;;;;;2078353;28;20026;-69
2022/06/21 03:22:02;;;;;;;4.07;2.92;;;12.60;99.90;;;;;;2081162;28;20449;-69
2022/06/21 03:23:05;;;;;;;5.03;3.10;;;12.60;99.90;;;;;;2079162;28;20481;-69
2022/06/21 03:24:15;;;;;;;4.65;3.00;;;12.60;99.90;;;;;;2077624;28;20017;-69
2022/06/21 03:25:25;;;;;;;4.55;3.15;;;12.60;99.90;;;;;;2078189;28;20034;-69
2022/06/21 03:26:27;;;;;;;5.28;3.20;;;12.50;99.90;;;;;;2075155;28;20448;-69
2022/06/21 03:27:34;;;;;;;3.80;2.88;;;12.50;99.90;;;;;;2078176;28;20018;-69
2022/06/21 03:28:38;;;;;;;6.75;3.50;;;12.50;99.90;;;;;;2078594;28;20469;-69
2022/06/21 03:29:39;;;;;;;4.07;3.45;;;12.50;99.90;;;;;;2076621;28;20030;-69
2022/06/21 03:30:40;;;;;;;6.90;3.67;;;12.50;99.90;;;;;;2078407;28;20096;-69
2022/06/21 03:31:48;;;;;;;4.82;3.05;;;12.50;99.90;;;;;;2077619;28;20018;-69
2022/06/21 03:32:51;;;;;;;5.45;3.25;;;12.50;99.90;;;;;;2075553;28;20551;-69
2022/06/21 03:34:01;;;;;;;5.72;3.05;;;12.50;99.90;;;;;;2079739;28;20041;-69
2022/06/21 03:35:05;;;;;;;4.28;2.78;;;12.50;99.90;;;;;;2075747;28;20069;-69
2022/06/21 03:36:09;;;;;;;6.65;3.47;;;12.50;99.90;;;;;;2080103;28;20025;-69
2022/06/21 03:37:11;;;;;;;4.25;2.85;;;12.50;99.90;;;;;;2079277;28;20080;-69
2022/06/21 03:38:11;;;;;;;6.78;3.00;;;12.50;99.90;;;;;;2074490;28;20045;-69
2022/06/21 03:39:17;;;;;;;4.25;2.60;;;12.50;99.90;;;;;;2076270;28;20021;-69
2022/06/21 03:41:44;;;;;;;5.15;2.75;;;12.50;99.90;;;;;;2077447;28;20030;-69
2022/06/21 03:42:49;;;;;;;4.88;2.70;;;12.50;99.90;;;;;;2077437;28;20420;-69
2022/06/21 03:43:57;;;;;;;4.05;2.95;;;12.50;99.90;;;;;;2075890;28;20022;-69
2022/06/21 03:45:10;;;;;;;3.08;2.78;;;12.50;99.90;;;;;;2078699;28;20441;-69
2022/06/21 03:46:16;;;;;;;4.50;2.97;;;12.50;99.90;;;;;;2076229;28;20029;-69
2022/06/21 03:47:30;;;;;;;4.57;3.00;;;12.50;99.90;;;;;;2076741;28;20125;-69
2022/06/21 03:48:42;;;;;;;4.78;3.17;;;12.50;99.90;;;;;;2075374;28;20026;-69
2022/06/21 03:49:54;;;;;;;5.60;3.67;;;12.50;99.90;;;;;;2075947;28;20018;-69
2022/06/21 03:51:26;;;;;;;6.55;3.35;;;12.50;99.90;;;;;;2077252;28;20384;-69
2022/06/21 03:52:42;;;;;;;7.35;3.40;;;12.50;99.90;;;;;;2078999;28;20057;-69
2022/06/21 03:53:51;;;;;;;5.45;3.88;;;12.50;99.90;;;;;;2075715;28;20014;-69
2022/06/21 03:54:52;;;;;;;6.20;3.53;;;12.50;99.90;;;;;;2079222;28;20013;-69
2022/06/21 03:56:13;;;;;;;6.57;3.35;;;12.50;99.90;;;;;;2079105;28;20025;-69
2022/06/21 03:57:25;;;;;;;5.30;3.40;;;12.60;99.90;;;;;;2077245;28;20029;-69
2022/06/21 03:58:38;;;;;;;5.50;3.60;;;12.70;99.90;;;;;;2078609;28;20040;-69
2022/06/21 03:59:52;;;;;;;4.50;3.22;;;12.80;99.90;;;;;;2079583;28;20420;-69
2022/06/21 04:01:03;;;;;;;5.18;3.13;;;12.90;99.90;;;;;;2077175;28;20044;-69
2022/06/21 04:02:36;;;;;;;9.63;3.65;;;13.00;99.90;;;;;;2077281;28;20120;-69
2022/06/21 04:03:56;;;;;;;5.00;3.03;;;13.10;99.90;;;;;;2077013;28;20013;-69
2022/06/21 04:05:09;;;;;;;5.60;3.28;;;13.20;99.90;;;;;;2076786;28;20030;-69
2022/06/21 04:06:21;;;;;;;6.75;3.80;;;13.30;99.90;;;;;;2079549;28;20489;-69
2022/06/21 04:07:59;;;;;;;6.45;3.55;;;13.40;99.90;;;;;;2077790;28;20088;-69
2022/06/21 04:09:09;;;;;;;5.35;3.72;;;13.70;99.90;;;;;;2078904;28;20412;-69
2022/06/21 04:10:22;;;;;;;5.60;3.45;;;13.90;99.90;;;;;;2076647;28;20025;-69
2022/06/21 04:11:37;;;;;;;6.93;3.47;;;14.20;99.90;;;;;;2078554;28;20018;-69
2022/06/21 04:12:53;;;;;;;4.78;3.35;;;14.50;99.90;;;;;;2080183;28;20544;-69
2022/06/21 04:13:53;;;;;;;4.57;2.75;;;14.90;99.90;;;;;;2077566;28;20539;-69
2022/06/21 04:15:02;;;;;;;5.05;3.20;;;15.10;99.90;;;;;;2077437;28;20424;-69
2022/06/21 04:16:15;;;;;;;3.80;2.95;;;15.50;99.90;;;;;;2078438;28;20049;-69
2022/06/21 04:17:29;;;;;;;5.18;3.08;;;15.80;99.90;;;;;;2076374;28;20025;-69
2022/06/21 04:18:54;;;;;;;3.58;2.90;;;16.10;99.90;;;;;;2076751;28;20133;-69
2022/06/21 04:20:15;;;;;;;6.65;2.97;;;16.50;99.90;;;;;;2077358;28;20059;-69
2022/06/21 04:21:23;;;;;;;4.50;3.22;;;16.80;99.90;;;;;;2076042;28;20045;-69
2022/06/21 04:22:34;;;;;;;4.28;2.70;;;17.00;99.60;;;;;;2076969;28;20034;-69
2022/06/21 04:24:02;;;;;;;5.63;3.05;;;17.30;98.40;;;;;;2075782;28;20032;-69
2022/06/21 04:25:11;;;;;;;5.15;2.60;;;17.60;96.90;;;;;;2076255;28;20029;-69
2022/06/21 04:26:29;;;;;;;3.40;2.58;;;17.80;94.30;;;;;;2079467;28;20500;-69
2022/06/21 04:27:38;;;;;;;4.97;3.10;;;18.00;93.70;;;;;;2076504;28;20037;-69
2022/06/21 04:29:00;;;;;;;5.07;2.90;;;18.00;94.00;;;;;;2078881;28;20022;-69
2022/06/21 04:30:07;;;;;;;4.80;2.95;;;17.90;93.30;;;;;;2077852;28;20779;-69
2022/06/21 04:31:27;;;;;;;7.60;2.90;;;17.80;94.30;;;;;;2076677;28;20059;-69
2022/06/21 04:32:46;;;;;;;5.75;3.60;;;17.80;95.70;;;;;;2078721;28;20489;-69
2022/06/21 04:34:15;;;;;;;6.13;2.78;;;17.70;97.70;;;;;;2077405;28;20045;-69
2022/06/21 04:35:48;;;;;;;3.55;2.55;;;17.60;98.20;;;;;;2072630;28;20040;-69
2022/06/21 04:37:00;;;;;;;3.90;2.63;;;17.50;98.50;;;;;;2078912;28;20048;-69
2022/06/21 04:38:32;;;;;;;5.80;2.63;;;17.40;98.70;;;;;;2079495;28;20037;-69
2022/06/21 04:39:40;;;;;;;5.07;2.90;;;17.40;98.10;;;;;;2070836;28;20042;-69
2022/06/21 04:40:52;;;;;;;9.32;3.20;;;17.40;99.90;;;;;;2076332;28;20079;-69
2022/06/21 04:42:12;;;;;;;5.63;2.55;;;17.40;99.90;;;;;;2077243;28;20061;-69
2022/06/21 04:43:22;;;;;;;6.25;2.90;;;17.40;99.90;;;;;;2068706;28;20084;-69
2022/06/21 04:44:25;;;;;;;4.60;2.90;;;17.40;99.90;;;;;;2069886;28;20061;-69
2022/06/21 04:45:51;;;;;;;6.90;2.95;;;17.40;99.90;;;;;;2077003;28;20038;-69
2022/06/21 04:47:30;;;;;;;5.68;2.47;;;17.50;99.90;;;;;;2077145;28;20013;-69
2022/06/21 04:48:47;;;;;;;5.18;2.88;;;17.50;99.90;;;;;;2081327;28;20167;-69
2022/06/21 04:49:58;;;;;;;3.40;2.22;;;17.60;99.90;;;;;;2082597;28;20408;-69
2022/06/21 04:51:04;;;;;;;6.60;2.63;;;17.70;99.90;;;;;;2077206;28;20014;-69
2022/06/21 04:52:19;;;;;;;5.93;2.47;;;17.70;99.90;;;;;;2076054;28;20024;-69
2022/06/21 04:53:34;;;;;;;5.07;2.58;;;17.80;99.90;;;;;;2075369;28;20390;-69
2022/06/21 04:54:37;;;;;;;4.22;2.20;;;17.90;99.90;;;;;;2076616;28;20068;-69
2022/06/21 04:55:57;;;;;;;7.97;2.80;;;18.00;99.90;;;;;;2074049;28;20030;-69
2022/06/21 04:57:24;;;;;;;4.63;2.72;;;18.10;99.90;;;;;;2075249;28;20113;-69
2022/06/21 04:58:25;;;;;;;4.78;2.53;;;18.10;99.90;;;;;;2073710;28;20137;-69
2022/06/21 04:59:28;;;;;;;7.03;2.78;;;18.20;99.90;;;;;;2075180;28;20022;-69
2022/06/21 05:00:29;;;;;;;7.22;3.20;;;18.20;99.90;;;;;;2076802;28;20168;-69
2022/06/21 05:01:29;;;;;;;5.18;2.78;;;18.30;99.90;;;;;;2074716;28;20092;-69
2022/06/21 05:02:40;;;;;;;9.88;3.05;;;18.40;99.90;;;;;;2077294;28;20044;-69
2022/06/21 05:03:42;;;;;;;4.20;2.88;;;18.40;99.90;;;;;;2076989;28;20021;-69
2022/06/21 05:04:45;;;;;;;9.18;3.00;;;18.50;99.90;;;;;;2075038;28;20026;-69
2022/06/21 05:05:47;;;;;;;4.32;2.58;;;18.50;99.90;;;;;;2077686;28;20045;-69
2022/06/21 05:06:52;;;;;;;8.02;2.97;;;18.60;99.90;;;;;;2074850;28;20029;-69
2022/06/21 05:07:58;;;;;;;5.40;2.90;;;18.60;99.10;;;;;;2075513;28;20029;-69
2022/06/21 05:09:00;;;;;;;7.57;3.42;;;18.60;98.20;;;;;;2077400;28;20080;-69
2022/06/21 05:10:02;;;;;;;6.63;3.25;;;18.60;97.80;;;;;;2074567;28;20022;-69
2022/06/21 05:11:03;;;;;;;6.47;3.45;;;18.70;97.80;;;;;;2076499;28;20034;-69
2022/06/21 05:12:04;;;;;;;9.98;3.97;;;18.80;98.60;;;;;;2076204;28;20587;-69
2022/06/21 05:13:24;;;;;;;6.53;3.80;;;18.80;97.30;;;;;;2075611;28;20029;-70
2022/06/21 05:14:28;;;;;;;9.27;3.88;;;18.90;96.20;;;;;;2075485;28;20069;-69
2022/06/21 05:15:35;;;;;;;7.70;3.60;;;18.90;96.40;;;;;;2074945;28;20144;-69
2022/06/21 05:16:39;;;;;;;7.05;3.20;;;18.90;96.40;;;;;;2074660;28;20026;-69
2022/06/21 05:17:43;;;;;;;8.68;3.75;;;19.00;96.00;;;;;;2075602;28;20394;-69
2022/06/21 05:18:51;;;;;;;4.22;2.90;;;19.00;94.80;;;;;;2076197;28;20025;-69
2022/06/21 05:19:59;;;;;;;9.00;3.83;;;19.00;94.50;;;;;;2074640;28;20052;-69
2022/06/21 05:21:06;;;;;;;7.55;3.05;;;19.10;94.90;;;;;;2075680;28;20462;-69
2022/06/21 05:22:22;;;;;;;6.13;3.28;;;19.10;94.80;;;;;;2075727;28;20056;-69
2022/06/21 05:23:24;;;;;;;8.07;3.50;;;19.20;94.60;;;;;;2076588;28;20152;-69
2022/06/21 05:24:25;;;;;;;5.88;3.13;;;19.30;95.20;;;;;;2076712;28;20582;-69
2022/06/21 05:25:36;;;;;;;6.28;2.90;;;19.40;95.10;;;;;;2074953;28;20057;-70
2022/06/21 05:26:45;;;;;;;7.68;3.97;;;19.40;93.80;;;;;;2077830;28;20509;-69
2022/06/21 05:27:51;;;;;;;5.85;3.30;;;19.50;92.60;;;;;;2075902;28;20125;-69
2022/06/21 05:28:59;;;;;;;6.80;3.40;;;19.60;92.40;;;;;;2076296;28;20009;-69
2022/06/21 05:30:05;;;;;;;5.70;3.30;;;19.60;92.40;;;;;;2075446;28;20022;-69
2022/06/21 05:31:17;;;;;;;6.85;3.08;;;19.70;92.60;;;;;;2075103;28;20014;-69
2022/06/21 05:32:21;;;;;;;5.97;3.35;;;19.80;91.70;;;;;;2065478;28;20477;-69
2022/06/21 05:33:43;;;;;;;7.68;3.03;;;19.80;90.60;;;;;;2067603;28;20060;-69
2022/06/21 05:34:49;;;;;;;8.45;3.38;;;19.80;90.20;;;;;;2074727;28;20033;-69
2022/06/21 05:35:50;;;;;;;6.68;3.30;;;19.90;91.30;;;;;;2077451;28;20384;-69
2022/06/21 05:36:57;;;;;;;7.18;3.45;;;20.00;91.30;;;;;;2076724;28;20060;-69
2022/06/21 05:38:11;;;;;;;4.57;2.58;;;20.10;91.10;;;;;;2074579;28;20038;-69
2022/06/21 05:39:21;;;;;;;9.93;3.30;;;20.10;90.90;;;;;;2075405;28;20477;-69
2022/06/21 05:40:37;;;;;;;6.80;3.53;;;20.10;88.70;;;;;;2075461;28;20036;-69
2022/06/21 05:41:44;;;;;;;6.05;3.28;;;20.20;89.00;;;;;;2076836;28;20363;-70
2022/06/21 05:42:45;;;;;;;6.07;3.10;;;20.20;85.00;;;;;;2073491;28;20233;-70
2022/06/21 05:43:50;;;;;;;7.93;3.70;;;20.20;85.80;;;;;;2076511;28;20140;-69
2022/06/21 05:44:53;;;;;;;7.90;3.50;;;20.20;86.60;;;;;;2076823;28;20384;-69
2022/06/21 05:45:59;;;;;;;10.70;3.78;;;20.30;86.70;;;;;;2074588;28;20017;-70
2022/06/21 05:47:03;;;;;;;9.38;3.40;;;20.30;83.60;;;;;;2075207;28;20064;-69
2022/06/21 05:48:11;;;;;;;9.00;3.00;;;20.20;83.40;;;;;;2076104;28;20029;-69
2022/06/21 05:49:22;;;;;;;6.43;2.85;;;20.30;84.00;;;;;;2074994;28;20024;-69
2022/06/21 05:50:30;;;;;;;6.88;2.72;;;20.30;83.20;;;;;;2075708;28;20022;-70
2022/06/21 05:51:33;;;;;;;8.75;3.00;;;20.30;82.70;;;;;;2077325;28;20515;-69
2022/06/21 05:52:41;;;;;;;6.35;2.83;;;20.30;81.90;;;;;;2074580;28;20383;-69
2022/06/21 05:53:53;;;;;;;8.55;2.40;;;20.30;81.80;;;;;;2075995;28;20014;-69
2022/06/21 05:55:00;;;;;;;8.77;2.53;;;20.20;81.20;;;;;;2077961;28;20025;-69